Main page
METAR-TAF:

METAR-TAF

Airports :

Dammam, Saudi Arabia

King Fahd International Airport

latitude: 26-28N, longitude: 049-47E, elevation: 22 m

Current weather observation

The report was made 23 minutes ago, at 16:00 UTC
Wind 8 kt from the Northwest
Temperature 18°C
Humidity 49%
Pressure 1023 hPa
Visibility 10 km or more
no clouds below 1500 m and no cumulonimbus

METAR: OEDF 181600Z 32008KT CAVOK 18/07 Q1023 NOSIG

Time: 19:23 (16:23 UTC)

Forecast

The report was made 7 hours and 23 minutes ago, at 09:00 UTC
Forecast valid from 18 at 12 UTC to 19 at 18 UTC
Wind 12 kt from the North/Northwest
Visibility 10 km or more
no clouds below 1500 m and no cumulonimbus
Becoming
from 18 at 18 UTC to 18 at 20 UTC
Wind 8 kt from the West/Northwest
Visibility: 8000 m

TAF: OEDF 180900Z 1812/1918 34012KT CAVOK BECMG 1818/1820 30008KT 8000

Weather observations and forecasts of more than 4000 airports (METAR and TAF reports).

The available stations are represented by yellow and red dots on the map.

Hover mouse over dot to see the name of the station.

Then click to see weather observations and forecasts.

To change the map : click on the green buttons with a black cross to zoom in, on the green button with a dash to zoom out, or on the green arrows for adjacent maps.


METAR-TAF: